createdAt,value
2017-10-26T00:02:08.161Z,14.90
2017-10-26T00:04:42.739Z,14.90
2017-10-26T00:07:11.895Z,14.90
2017-10-26T00:09:41.149Z,14.80
2017-10-26T00:12:10.329Z,14.70
2017-10-26T00:14:40.120Z,14.70
2017-10-26T00:17:10.280Z,14.60
2017-10-26T00:19:40.102Z,14.60
2017-10-26T00:22:10.945Z,14.50
2017-10-26T00:24:40.342Z,14.50
2017-10-26T00:27:09.695Z,14.50
2017-10-26T00:29:40.379Z,14.50
2017-10-26T00:32:09.826Z,14.50
2017-10-26T00:34:40.004Z,14.50
2017-10-26T00:37:09.291Z,14.50
2017-10-26T00:39:39.068Z,14.50
2017-10-26T00:42:08.405Z,14.50
2017-10-26T00:44:37.965Z,14.50
2017-10-26T00:47:08.195Z,14.50
2017-10-26T00:49:38.537Z,14.50
2017-10-26T00:52:07.993Z,14.50
2017-10-26T00:54:37.398Z,14.50
2017-10-26T00:57:08.623Z,14.60
2017-10-26T00:59:38.539Z,14.60
2017-10-26T01:02:08.215Z,14.60
2017-10-26T01:04:37.805Z,14.70
2017-10-26T01:07:08.658Z,14.70
2017-10-26T01:09:38.002Z,14.70
2017-10-26T01:12:07.549Z,14.70
2017-10-26T01:14:37.925Z,14.70
2017-10-26T01:18:10.980Z,14.70
2017-10-26T01:20:41.136Z,14.70
2017-10-26T01:23:11.464Z,14.70
2017-10-26T01:25:41.278Z,14.70
2017-10-26T01:28:11.679Z,14.80
2017-10-26T01:30:42.645Z,14.70
2017-10-26T01:33:12.573Z,14.80
2017-10-26T01:35:43.291Z,14.70
2017-10-26T01:38:12.800Z,14.80
2017-10-26T01:40:43.595Z,14.70
2017-10-26T01:43:14.865Z,14.70
2017-10-26T01:45:45.181Z,14.80
2017-10-26T01:48:16.506Z,14.70
2017-10-26T01:50:47.040Z,14.80
2017-10-26T01:53:16.610Z,14.80
2017-10-26T01:55:46.415Z,14.80
2017-10-26T01:58:16.054Z,14.70
2017-10-26T02:00:45.545Z,14.70
2017-10-26T02:03:18.721Z,14.70
2017-10-26T02:05:48.193Z,14.60
2017-10-26T02:08:17.861Z,14.70
2017-10-26T02:10:48.256Z,14.80
2017-10-26T02:13:22.330Z,14.80
2017-10-26T02:15:52.633Z,14.80
2017-10-26T02:18:22.217Z,14.80
2017-10-26T02:20:52.954Z,14.70
2017-10-26T02:23:27.739Z,14.80
2017-10-26T02:25:57.517Z,14.80
2017-10-26T02:28:35.742Z,14.80
2017-10-26T02:31:20.090Z,14.90
2017-10-26T02:33:50.803Z,15.00
2017-10-26T02:36:20.797Z,15.10
2017-10-26T02:38:52.165Z,15.10
2017-10-26T02:41:22.636Z,15.10
2017-10-26T02:43:51.807Z,15.10
2017-10-26T02:46:21.967Z,15.10
2017-10-26T02:48:51.277Z,15.10
2017-10-26T02:51:20.614Z,15.10
2017-10-26T02:53:50.575Z,15.10
2017-10-26T02:56:20.733Z,15.00
2017-10-26T02:58:51.559Z,15.00
2017-10-26T03:01:22.237Z,15.00
2017-10-26T03:03:52.114Z,15.00
2017-10-26T03:06:22.824Z,15.00
2017-10-26T03:08:53.594Z,15.00
2017-10-26T03:11:23.886Z,15.10
2017-10-26T03:13:53.676Z,15.10
2017-10-26T03:16:24.305Z,15.10
2017-10-26T03:18:53.982Z,15.10
2017-10-26T03:21:24.375Z,15.10
2017-10-26T03:23:55.003Z,15.00
2017-10-26T03:26:24.574Z,15.00
2017-10-26T03:28:53.921Z,15.00
2017-10-26T03:31:24.507Z,15.00
2017-10-26T03:33:54.043Z,15.00
2017-10-26T03:36:24.147Z,15.00
2017-10-26T03:38:54.537Z,15.00
2017-10-26T03:41:24.146Z,15.00
2017-10-26T03:43:53.510Z,15.00
2017-10-26T03:46:24.118Z,14.90
2017-10-26T03:48:53.523Z,14.90
2017-10-26T03:51:23.744Z,14.90
2017-10-26T03:53:53.025Z,14.90
2017-10-26T03:56:22.473Z,14.90
2017-10-26T03:58:51.689Z,14.90
2017-10-26T04:01:20.968Z,14.90
2017-10-26T04:03:50.575Z,14.90
2017-10-26T04:06:20.651Z,14.90
2017-10-26T04:08:50.973Z,14.90
2017-10-26T04:11:20.330Z,14.90
2017-10-26T04:13:50.050Z,14.90
2017-10-26T04:16:19.778Z,14.90
2017-10-26T04:18:49.018Z,14.90
2017-10-26T04:21:18.426Z,14.90
2017-10-26T04:23:47.792Z,14.80
2017-10-26T04:26:17.164Z,14.90
2017-10-26T04:28:47.509Z,15.00
2017-10-26T04:31:17.221Z,14.90
2017-10-26T04:33:46.750Z,15.00
2017-10-26T04:36:16.030Z,15.00
2017-10-26T04:38:45.490Z,15.00
2017-10-26T04:41:15.212Z,15.00
2017-10-26T04:43:45.423Z,15.10
2017-10-26T04:46:14.782Z,15.10
2017-10-26T04:48:44.179Z,15.10
2017-10-26T04:51:13.592Z,15.10
2017-10-26T04:53:42.917Z,15.10
2017-10-26T04:56:12.230Z,15.10
2017-10-26T04:58:41.990Z,15.00
2017-10-26T05:01:11.187Z,15.00
2017-10-26T05:03:40.460Z,15.10
2017-10-26T05:06:10.512Z,15.10
2017-10-26T05:08:40.081Z,15.00
2017-10-26T05:11:10.089Z,15.10
2017-10-26T05:13:39.392Z,15.00
2017-10-26T05:16:09.410Z,15.00
2017-10-26T05:18:39.765Z,15.00
2017-10-26T05:21:12.067Z,15.00
2017-10-26T05:23:41.259Z,15.00
2017-10-26T05:26:11.040Z,15.00
2017-10-26T05:28:40.591Z,15.00
2017-10-26T05:31:09.927Z,15.00
2017-10-26T05:33:39.800Z,15.00
2017-10-26T05:36:09.558Z,15.00
2017-10-26T05:38:39.793Z,15.10
2017-10-26T05:41:09.773Z,15.00
2017-10-26T05:43:39.543Z,15.10
2017-10-26T05:46:09.101Z,15.10
2017-10-26T05:51:39.037Z,15.10
2017-10-26T05:54:08.548Z,15.10
2017-10-26T05:56:38.650Z,15.10
2017-10-26T05:59:08.096Z,15.10
2017-10-26T06:01:37.521Z,15.10
2017-10-26T06:04:07.233Z,15.20
2017-10-26T06:06:37.320Z,15.20
2017-10-26T06:09:07.098Z,15.20
2017-10-26T06:11:36.435Z,15.20
2017-10-26T06:14:05.797Z,15.20
2017-10-26T06:16:35.240Z,15.10
2017-10-26T06:19:05.947Z,15.10
2017-10-26T06:21:41.187Z,15.10
2017-10-26T06:24:16.596Z,15.10
2017-10-26T06:26:46.120Z,15.10
2017-10-26T06:29:15.649Z,15.10
2017-10-26T06:31:45.323Z,15.20
2017-10-26T06:34:16.384Z,15.10
2017-10-26T06:36:53.150Z,15.20
2017-10-26T06:39:27.261Z,15.20
2017-10-26T06:42:01.852Z,15.20
2017-10-26T06:44:31.471Z,15.30
2017-10-26T06:47:00.723Z,15.30
2017-10-26T06:49:32.246Z,15.50
2017-10-26T06:52:02.077Z,15.40
2017-10-26T06:54:32.784Z,15.50
2017-10-26T06:57:02.135Z,15.40
2017-10-26T06:59:32.180Z,15.50
2017-10-26T07:02:01.604Z,15.50
2017-10-26T07:04:30.904Z,15.50
2017-10-26T07:07:05.501Z,15.50
2017-10-26T07:09:40.770Z,15.60
2017-10-26T07:12:15.336Z,15.60
2017-10-26T07:14:45.131Z,15.60
2017-10-26T07:17:14.858Z,15.70
2017-10-26T07:19:45.046Z,15.70
2017-10-26T07:22:14.409Z,15.70
2017-10-26T07:24:44.256Z,15.80
2017-10-26T07:27:20.297Z,15.90
2017-10-26T07:29:51.806Z,15.90
2017-10-26T07:32:21.918Z,16.00
2017-10-26T07:34:51.406Z,16.00
2017-10-26T07:37:21.756Z,16.10
2017-10-26T07:39:52.380Z,16.10
2017-10-26T07:42:28.097Z,16.20
2017-10-26T07:45:05.399Z,16.20
2017-10-26T07:47:35.708Z,16.30
2017-10-26T07:50:05.889Z,16.30
2017-10-26T07:52:35.661Z,16.30
2017-10-26T07:55:05.440Z,16.40
2017-10-26T07:57:35.265Z,16.50
2017-10-26T08:00:05.511Z,16.50
2017-10-26T08:02:35.102Z,16.50
2017-10-26T08:05:04.579Z,16.50
2017-10-26T08:07:34.727Z,16.50
2017-10-26T08:10:04.851Z,16.50
2017-10-26T08:12:34.187Z,16.60
2017-10-26T08:15:03.957Z,16.60
2017-10-26T08:17:34.009Z,16.60
2017-10-26T08:20:03.650Z,16.60
2017-10-26T08:22:33.499Z,16.60
2017-10-26T08:25:03.116Z,16.70
2017-10-26T08:27:33.400Z,16.80
2017-10-26T08:30:02.837Z,16.80
2017-10-26T08:32:32.984Z,16.90
2017-10-26T08:35:03.315Z,16.90
2017-10-26T08:37:33.740Z,16.90
2017-10-26T08:40:03.380Z,16.90
2017-10-26T08:42:32.919Z,16.80
2017-10-26T08:45:02.512Z,16.90
2017-10-26T08:47:32.388Z,16.90
2017-10-26T08:50:01.791Z,16.80
2017-10-26T08:52:31.230Z,16.80
2017-10-26T08:55:00.802Z,16.80
2017-10-26T08:57:30.605Z,16.80
2017-10-26T09:00:01.345Z,16.90
2017-10-26T09:02:31.134Z,16.90
2017-10-26T09:05:04.257Z,17.20
2017-10-26T09:07:33.800Z,17.30
2017-10-26T09:10:03.367Z,17.30
2017-10-26T09:12:33.044Z,17.30
2017-10-26T09:15:03.711Z,17.50
2017-10-26T09:17:33.479Z,17.40
2017-10-26T09:20:03.557Z,17.60
2017-10-26T09:22:33.796Z,17.70
2017-10-26T09:25:05.812Z,17.60
2017-10-26T09:27:39.391Z,17.60
2017-10-26T09:30:11.182Z,17.80
2017-10-26T09:32:45.526Z,17.80
2017-10-26T09:35:16.885Z,18.00
2017-10-26T09:37:49.805Z,18.10
2017-10-26T09:40:21.872Z,18.30
2017-10-26T09:42:59.892Z,18.10
2017-10-26T09:45:35.956Z,18.10
2017-10-26T09:48:05.854Z,18.10
2017-10-26T09:50:38.676Z,18.10
2017-10-26T09:53:08.990Z,18.10
2017-10-26T09:55:41.517Z,18.20
2017-10-26T09:58:12.610Z,18.20
2017-10-26T10:00:43.993Z,18.40
2017-10-26T10:03:14.546Z,18.60
2017-10-26T10:05:47.081Z,18.70
2017-10-26T10:08:17.359Z,18.70
2017-10-26T10:10:48.781Z,18.70
2017-10-26T10:13:18.902Z,18.70
2017-10-26T10:15:50.101Z,18.70
2017-10-26T10:18:20.407Z,18.80
2017-10-26T10:20:57.945Z,18.30
2017-10-26T10:23:27.928Z,18.30
2017-10-26T10:25:58.303Z,18.30
2017-10-26T10:28:33.820Z,18.40
2017-10-26T10:31:04.016Z,18.60
2017-10-26T10:33:34.872Z,18.60
2017-10-26T10:36:04.643Z,18.60
2017-10-26T10:38:34.906Z,18.90
2017-10-26T10:41:04.897Z,18.90
2017-10-26T10:43:35.006Z,19.10
2017-10-26T10:46:04.793Z,19.40
2017-10-26T10:48:34.651Z,19.40
2017-10-26T10:51:04.667Z,19.10
2017-10-26T10:53:34.385Z,19.20
2017-10-26T10:56:04.865Z,19.50
2017-10-26T10:58:39.213Z,19.20
2017-10-26T11:01:09.752Z,18.70
2017-10-26T11:03:53.648Z,18.70
2017-10-26T11:06:34.083Z,18.80
2017-10-26T11:09:06.240Z,19.30
2017-10-26T11:11:36.240Z,19.30
2017-10-26T11:14:06.136Z,19.60
2017-10-26T11:16:36.156Z,19.50
2017-10-26T11:19:06.328Z,19.20
2017-10-26T11:21:36.982Z,19.20
2017-10-26T11:24:06.859Z,19.20
2017-10-26T11:26:36.775Z,18.90
2017-10-26T11:29:09.936Z,18.70
2017-10-26T11:31:39.857Z,18.60
2017-10-26T11:34:10.487Z,18.60
2017-10-26T11:36:47.215Z,18.50
2017-10-26T11:39:17.898Z,18.40
2017-10-26T11:41:53.639Z,18.40
2017-10-26T11:44:24.667Z,19.00
2017-10-26T11:46:55.534Z,18.80
2017-10-26T11:49:25.544Z,18.80
2017-10-26T11:51:55.030Z,18.60
2017-10-26T11:54:24.730Z,18.50
2017-10-26T11:56:54.380Z,18.50
2017-10-26T11:59:23.980Z,18.30
2017-10-26T12:01:53.946Z,18.30
2017-10-26T12:04:23.825Z,18.40
2017-10-26T12:06:53.594Z,18.30
2017-10-26T12:09:23.862Z,18.30
2017-10-26T12:11:55.579Z,18.40
2017-10-26T12:14:32.807Z,18.40
2017-10-26T12:17:07.529Z,18.30
2017-10-26T12:19:39.062Z,18.30
2017-10-26T12:22:08.994Z,18.30
2017-10-26T12:24:39.535Z,18.30
2017-10-26T12:27:10.110Z,18.50
2017-10-26T12:29:40.345Z,18.70
2017-10-26T12:32:11.544Z,19.00
2017-10-26T12:34:41.468Z,18.90
2017-10-26T12:37:11.518Z,18.70
2017-10-26T12:39:41.575Z,18.60
2017-10-26T12:42:11.467Z,18.50
2017-10-26T12:44:41.057Z,18.40
2017-10-26T12:47:13.163Z,18.40
2017-10-26T12:49:43.232Z,18.40
2017-10-26T12:52:13.019Z,18.50
2017-10-26T12:54:42.799Z,18.50
2017-10-26T12:57:15.072Z,18.40
2017-10-26T12:59:45.191Z,18.60
2017-10-26T13:02:16.216Z,18.70
2017-10-26T13:04:45.992Z,18.80
2017-10-26T13:07:17.792Z,21.20
2017-10-26T13:09:52.553Z,21.20
2017-10-26T13:12:22.865Z,21.90
2017-10-26T13:14:52.773Z,22.60
2017-10-26T13:17:24.670Z,24.20
2017-10-26T13:19:54.494Z,24.10
2017-10-26T13:22:26.053Z,24.20
2017-10-26T13:24:57.288Z,22.90
2017-10-26T13:27:28.434Z,22.90
2017-10-26T13:29:58.901Z,22.90
2017-10-26T13:32:28.469Z,23.00
2017-10-26T13:34:58.237Z,22.30
2017-10-26T13:37:32.771Z,21.90
2017-10-26T13:40:07.547Z,21.00
2017-10-26T13:42:37.899Z,19.70
2017-10-26T13:45:07.930Z,19.60
2017-10-26T13:47:47.071Z,19.40
2017-10-26T13:50:16.982Z,19.00
2017-10-26T13:52:47.432Z,19.40
2017-10-26T13:55:17.035Z,19.80
2017-10-26T13:57:46.845Z,19.60
2017-10-26T14:00:21.243Z,19.60
2017-10-26T14:03:10.682Z,19.50
2017-10-26T14:05:41.021Z,19.30
2017-10-26T14:11:45.673Z,19.40
2017-10-26T14:14:30.245Z,19.60
2017-10-26T14:17:17.494Z,20.00
2017-10-26T14:20:30.575Z,20.20
2017-10-26T14:23:01.514Z,20.50
2017-10-26T14:25:31.411Z,20.00
2017-10-26T14:28:02.072Z,19.40
2017-10-26T14:30:31.964Z,19.40
2017-10-26T14:33:02.822Z,19.00
2017-10-26T14:35:42.211Z,19.00
2017-10-26T14:38:18.745Z,18.80
2017-10-26T14:40:48.779Z,18.70
2017-10-26T14:43:19.272Z,18.70
2017-10-26T14:45:52.043Z,18.70
2017-10-26T14:48:22.377Z,18.50
2017-10-26T14:50:54.977Z,18.50
2017-10-26T14:53:24.849Z,18.50
2017-10-26T14:55:54.654Z,18.40
2017-10-26T14:58:34.324Z,18.50
2017-10-26T15:01:04.304Z,18.50
2017-10-26T15:03:34.365Z,18.40
2017-10-26T15:06:04.556Z,18.40
2017-10-26T15:08:37.055Z,18.30
2017-10-26T15:11:15.971Z,18.30
2017-10-26T15:13:46.665Z,18.20
2017-10-26T15:16:19.214Z,18.10
2017-10-26T15:21:35.857Z,18.00
2017-10-26T15:24:05.256Z,18.00
2017-10-26T15:26:35.398Z,17.90
2017-10-26T15:29:05.228Z,17.80
2017-10-26T15:31:42.805Z,17.70
2017-10-26T15:34:21.105Z,17.70
2017-10-26T15:36:51.156Z,17.70
2017-10-26T15:39:20.866Z,17.60
2017-10-26T15:41:51.562Z,17.50
2017-10-26T15:44:21.100Z,17.50
2017-10-26T15:46:51.623Z,17.50
2017-10-26T15:49:22.695Z,17.50
2017-10-26T15:51:56.049Z,17.40
2017-10-26T15:54:46.469Z,17.10
2017-10-26T15:57:19.143Z,17.10
2017-10-26T15:59:52.737Z,17.10
2017-10-26T16:02:23.186Z,17.10
2017-10-26T16:04:56.761Z,17.10
2017-10-26T16:07:28.203Z,17.10
2017-10-26T16:10:00.674Z,17.10
2017-10-26T16:12:31.618Z,17.10
2017-10-26T16:15:06.336Z,17.10
2017-10-26T16:17:43.518Z,16.90
2017-10-26T16:20:18.158Z,16.70
2017-10-26T16:22:50.933Z,16.70
2017-10-26T16:25:23.775Z,16.70
2017-10-26T16:27:53.579Z,16.70
2017-10-26T16:30:25.292Z,16.70
2017-10-26T16:32:54.938Z,16.70
2017-10-26T16:35:24.769Z,16.70
2017-10-26T16:37:54.660Z,16.70
2017-10-26T16:40:24.954Z,16.80
2017-10-26T16:42:58.034Z,16.80
2017-10-26T16:45:29.134Z,16.80
2017-10-26T16:48:02.620Z,16.80
2017-10-26T16:50:34.134Z,16.70
2017-10-26T16:53:06.031Z,16.60
2017-10-26T16:55:36.416Z,16.60
2017-10-26T16:58:06.558Z,16.60
2017-10-26T17:00:37.628Z,16.60
2017-10-26T17:03:07.353Z,16.60
2017-10-26T17:05:36.842Z,16.50
2017-10-26T17:08:09.104Z,16.60
2017-10-26T17:10:39.341Z,16.50
2017-10-26T17:13:10.064Z,16.50
2017-10-26T17:15:39.988Z,16.50
2017-10-26T17:18:09.971Z,16.40
2017-10-26T17:20:41.273Z,16.30
2017-10-26T17:23:20.388Z,16.30
2017-10-26T17:25:51.390Z,16.30
2017-10-26T17:28:21.475Z,16.20
2017-10-26T17:30:53.225Z,16.30
2017-10-26T17:33:23.973Z,16.30
2017-10-26T17:35:55.565Z,16.40
2017-10-26T17:38:34.703Z,16.40
2017-10-26T17:41:13.700Z,16.40
2017-10-26T17:43:45.080Z,16.40
2017-10-26T17:46:16.636Z,16.40
2017-10-26T17:48:46.907Z,16.50
2017-10-26T17:51:17.195Z,16.50
2017-10-26T17:53:46.773Z,16.60
2017-10-26T17:56:17.617Z,16.60
2017-10-26T17:58:50.549Z,16.60
2017-10-26T18:01:21.086Z,16.60
2017-10-26T18:03:52.298Z,16.50
2017-10-26T18:06:23.258Z,16.50
2017-10-26T18:08:53.116Z,16.50
2017-10-26T18:11:24.349Z,16.60
2017-10-26T18:13:53.954Z,16.60
2017-10-26T18:16:29.370Z,16.70
2017-10-26T18:19:01.642Z,16.70
2017-10-26T18:21:31.797Z,16.60
2017-10-26T18:24:02.965Z,16.70
2017-10-26T18:26:32.653Z,16.70
2017-10-26T18:29:02.534Z,16.70
2017-10-26T18:31:39.439Z,16.70
2017-10-26T18:34:18.719Z,16.70
2017-10-26T18:36:59.768Z,16.70
2017-10-26T18:39:38.249Z,16.60
2017-10-26T18:42:09.833Z,16.70
2017-10-26T18:44:39.545Z,16.70
2017-10-26T18:47:09.477Z,16.70
2017-10-26T18:49:43.388Z,16.70
2017-10-26T18:52:16.097Z,16.70
2017-10-26T18:54:46.578Z,16.70
2017-10-26T18:57:18.559Z,16.60
2017-10-26T18:59:51.195Z,16.60
2017-10-26T19:02:22.357Z,16.60
2017-10-26T19:04:53.280Z,16.60
2017-10-26T19:07:27.025Z,16.60
2017-10-26T19:09:59.486Z,16.60
2017-10-26T19:12:29.212Z,16.50
2017-10-26T19:15:00.507Z,16.50
2017-10-26T19:17:35.881Z,16.50
2017-10-26T19:20:08.151Z,16.50
2017-10-26T19:22:40.723Z,16.50
2017-10-26T19:25:11.663Z,16.20
2017-10-26T19:27:44.729Z,16.20
2017-10-26T19:30:25.209Z,16.20
2017-10-26T19:33:04.444Z,16.10
2017-10-26T19:35:37.853Z,16.10
2017-10-26T19:38:09.222Z,15.90
2017-10-26T19:40:41.093Z,15.90
2017-10-26T19:43:13.335Z,15.90
2017-10-26T19:45:43.375Z,15.70
2017-10-26T19:48:16.144Z,15.50
2017-10-26T19:51:01.937Z,15.30
2017-10-26T19:53:32.698Z,15.00
2017-10-26T19:56:26.115Z,14.90
2017-10-26T19:59:25.660Z,14.80
2017-10-26T20:01:58.908Z,14.80
2017-10-26T20:04:30.185Z,14.80
2017-10-26T20:07:00.505Z,14.80
2017-10-26T20:09:41.297Z,14.70
2017-10-26T20:12:11.798Z,14.70
2017-10-26T20:14:46.263Z,14.80
2017-10-26T20:17:18.278Z,14.70
2017-10-26T20:19:48.765Z,14.70
2017-10-26T20:22:19.883Z,14.70
2017-10-26T20:24:50.206Z,14.70
2017-10-26T20:27:23.050Z,14.70
2017-10-26T20:29:53.978Z,14.70
2017-10-26T20:32:24.039Z,14.80
2017-10-26T20:34:57.147Z,14.70
2017-10-26T20:37:30.778Z,14.70
2017-10-26T20:40:02.380Z,14.70
2017-10-26T20:42:36.651Z,14.80
2017-10-26T20:45:07.275Z,14.80
2017-10-26T20:47:40.238Z,14.70
2017-10-26T20:50:32.686Z,14.80
2017-10-26T20:55:11.958Z,14.70
2017-10-26T20:59:57.848Z,14.70
2017-10-26T21:04:43.368Z,14.70
2017-10-26T21:07:18.620Z,14.80
2017-10-26T21:09:49.771Z,14.80
2017-10-26T21:13:31.838Z,14.80
2017-10-26T21:16:06.932Z,14.80
2017-10-26T21:18:37.094Z,14.70
2017-10-26T21:21:08.882Z,14.60
2017-10-26T21:23:40.898Z,14.60
2017-10-26T21:26:16.306Z,14.60
2017-10-26T21:28:55.620Z,14.50
2017-10-26T21:31:25.312Z,14.50
2017-10-26T21:33:54.843Z,14.40
2017-10-26T21:36:24.960Z,14.50
2017-10-26T21:38:55.101Z,14.40
2017-10-26T21:41:27.147Z,14.40
2017-10-26T21:43:57.415Z,14.50
2017-10-26T21:46:27.069Z,14.50
2017-10-26T21:48:56.827Z,14.40
2017-10-26T21:51:26.615Z,14.40
2017-10-26T21:53:57.180Z,14.40
2017-10-26T21:56:28.866Z,14.40
2017-10-26T21:59:00.527Z,14.40
2017-10-26T22:01:30.816Z,14.40
2017-10-26T22:04:05.598Z,14.40
2017-10-26T22:06:38.025Z,14.40
2017-10-26T22:09:08.124Z,14.40
2017-10-26T22:11:37.697Z,14.40
2017-10-26T22:14:08.523Z,14.40
2017-10-26T22:16:38.283Z,14.40
2017-10-26T22:19:07.572Z,14.30
2017-10-26T22:21:36.807Z,14.30
2017-10-26T22:24:07.105Z,14.20
2017-10-26T22:26:36.722Z,14.20
2017-10-26T22:29:06.568Z,14.20
2017-10-26T22:31:40.075Z,14.10
2017-10-26T22:34:11.615Z,14.00
2017-10-26T22:36:44.222Z,14.10
2017-10-26T22:39:16.113Z,14.00
2017-10-26T22:41:45.991Z,14.00
2017-10-26T22:44:16.392Z,14.00
2017-10-26T22:46:46.997Z,14.00
2017-10-26T22:49:18.212Z,14.00
2017-10-26T22:51:49.002Z,14.00
2017-10-26T22:54:18.747Z,13.90
2017-10-26T22:56:53.171Z,13.90
2017-10-26T22:59:22.970Z,13.90
2017-10-26T23:01:57.205Z,13.90
2017-10-26T23:04:29.629Z,13.80
2017-10-26T23:07:02.022Z,13.80
2017-10-26T23:09:31.609Z,13.80
2017-10-26T23:12:01.294Z,13.70
2017-10-26T23:14:30.685Z,13.60
2017-10-26T23:17:08.755Z,13.60
2017-10-26T23:19:43.335Z,13.60
2017-10-26T23:22:16.174Z,13.50
2017-10-26T23:24:46.000Z,13.50
2017-10-26T23:27:15.283Z,13.50
2017-10-26T23:29:45.307Z,13.40
2017-10-26T23:32:15.545Z,13.40
2017-10-26T23:34:45.921Z,13.30
2017-10-26T23:37:15.497Z,13.30
2017-10-26T23:39:45.158Z,13.40
2017-10-26T23:42:14.797Z,13.30
2017-10-26T23:44:45.153Z,13.40
2017-10-26T23:47:14.932Z,13.40
2017-10-26T23:49:44.620Z,13.40
2017-10-26T23:52:17.286Z,13.50
2017-10-26T23:54:47.102Z,13.50
2017-10-26T23:57:24.512Z,13.50
2017-10-26T23:59:58.694Z,13.50
